Time;durP1;ratioP1;P1;durP2;ratioP2;P2;SDS_P1;SDS_P2;PMS_P1;PMS_P2;Temp;Humidity;BMP_temperature;BMP_pressure;BME280_temperature;BME280_humidity;BME280_pressure;Samples;Min_cycle;Max_cycle;Signal;HPM_P1;HPM_P2
2022/07/07 00:00:32;;;;;;;1.17;0.90;;;22.80;92.50;;;;;;5035646;28;20209;-37
2022/07/07 00:03:00;;;;;;;1.98;1.15;;;22.80;92.50;;;;;;5033378;28;20215;-37
2022/07/07 00:05:27;;;;;;;1.77;1.13;;;22.80;92.60;;;;;;5048122;28;20232;-37
2022/07/07 00:07:55;;;;;;;2.22;1.17;;;22.80;92.60;;;;;;5050763;28;20203;-37
2022/07/07 00:10:25;;;;;;;3.25;1.08;;;22.80;92.60;;;;;;5051560;28;20219;-37
2022/07/07 00:12:55;;;;;;;0.90;0.90;;;22.70;92.60;;;;;;5051444;28;20220;-36
2022/07/07 00:15:23;;;;;;;1.27;1.17;;;22.70;92.60;;;;;;5051803;28;20251;-36
2022/07/07 00:17:50;;;;;;;6.15;1.38;;;22.70;92.70;;;;;;5051791;28;20744;-36
2022/07/07 00:20:17;;;;;;;2.28;1.33;;;22.70;92.70;;;;;;5066770;28;20192;-37
2022/07/07 00:22:47;;;;;;;1.20;1.00;;;22.70;92.70;;;;;;5051464;28;20212;-37
2022/07/07 00:25:14;;;;;;;1.73;1.20;;;22.70;92.80;;;;;;5051323;28;20196;-37
2022/07/07 00:27:42;;;;;;;1.60;1.20;;;22.70;92.80;;;;;;5051048;28;20282;-32
2022/07/07 00:30:09;;;;;;;1.38;1.25;;;22.70;92.80;;;;;;5051382;28;20616;-33
2022/07/07 00:32:37;;;;;;;2.42;1.20;;;22.70;92.90;;;;;;5051600;28;20259;-33
2022/07/07 00:35:04;;;;;;;1.67;1.35;;;22.70;92.90;;;;;;5050983;28;20306;-36
2022/07/07 00:37:34;;;;;;;1.75;1.15;;;22.70;92.90;;;;;;5050957;28;20259;-33
2022/07/07 00:40:01;;;;;;;1.55;1.30;;;22.70;93.00;;;;;;5051578;28;20277;-33
2022/07/07 00:42:29;;;;;;;1.58;1.23;;;22.70;93.00;;;;;;5050912;28;20250;-33
2022/07/07 00:44:56;;;;;;;1.90;1.55;;;22.70;93.00;;;;;;5051265;28;20709;-33
2022/07/07 00:47:27;;;;;;;1.15;1.05;;;22.70;93.00;;;;;;5051067;28;20204;-33
2022/07/07 00:49:59;;;;;;;1.27;1.00;;;22.70;93.00;;;;;;5050564;28;20290;-33
2022/07/07 00:52:28;;;;;;;3.17;1.30;;;22.70;93.10;;;;;;5050786;28;20227;-33
2022/07/07 00:54:59;;;;;;;1.48;1.15;;;22.70;93.10;;;;;;5049565;28;20210;-33
2022/07/07 00:57:27;;;;;;;1.45;1.35;;;22.70;93.20;;;;;;5050281;28;20200;-32
2022/07/07 01:00:13;;;;;;;1.75;1.25;;;22.70;93.20;;;;;;5049750;28;20255;-32
2022/07/07 01:02:42;;;;;;;1.40;1.13;;;22.70;93.20;;;;;;5049365;28;20200;-32
2022/07/07 01:05:10;;;;;;;1.77;1.33;;;22.60;93.20;;;;;;5050091;28;20204;-33
2022/07/07 01:07:40;;;;;;;2.45;1.60;;;22.60;93.20;;;;;;5050324;28;20758;-33
2022/07/07 01:10:10;;;;;;;3.28;1.55;;;22.70;93.40;;;;;;5048662;28;20572;-33
2022/07/07 01:12:40;;;;;;;1.77;1.30;;;22.70;93.30;;;;;;5050083;28;20200;-32
2022/07/07 01:15:11;;;;;;;1.67;1.30;;;22.70;93.40;;;;;;5048984;28;20714;-33
2022/07/07 01:17:38;;;;;;;1.98;1.17;;;22.60;93.20;;;;;;5050503;28;20235;-33
2022/07/07 01:20:11;;;;;;;1.33;1.23;;;22.60;93.20;;;;;;5049797;28;20220;-33
2022/07/07 01:22:39;;;;;;;2.65;1.50;;;22.70;93.40;;;;;;5050278;28;20288;-37
2022/07/07 01:25:09;;;;;;;2.00;1.42;;;22.70;93.40;;;;;;5049959;28;20600;-37
2022/07/07 01:27:36;;;;;;;2.45;1.20;;;22.70;93.40;;;;;;5049937;28;20744;-37
2022/07/07 01:30:06;;;;;;;1.60;1.23;;;22.70;93.40;;;;;;5050193;28;20208;-36
2022/07/07 01:32:33;;;;;;;1.88;1.10;;;22.60;93.40;;;;;;5048756;28;20740;-37
2022/07/07 01:35:05;;;;;;;1.90;1.23;;;22.70;93.50;;;;;;5050143;28;20291;-37
2022/07/07 01:37:35;;;;;;;1.55;1.23;;;22.60;93.40;;;;;;5050325;28;20232;-33
2022/07/07 01:40:04;;;;;;;1.92;1.15;;;22.60;93.50;;;;;;5049850;28;20239;-33
2022/07/07 01:42:31;;;;;;;1.73;1.23;;;22.60;93.50;;;;;;5049659;28;20211;-36
2022/07/07 01:44:59;;;;;;;4.32;1.50;;;22.60;93.50;;;;;;5050237;28;20196;-37
2022/07/07 01:47:28;;;;;;;2.42;1.42;;;22.60;93.40;;;;;;5045638;28;20738;-39
2022/07/07 01:49:55;;;;;;;1.83;1.25;;;22.60;93.50;;;;;;5029728;28;20223;-39
2022/07/07 01:52:23;;;;;;;1.33;1.08;;;22.60;93.50;;;;;;5030841;28;20215;-36
2022/07/07 01:54:50;;;;;;;2.58;1.30;;;22.60;93.50;;;;;;5030450;28;20258;-36
2022/07/07 01:57:17;;;;;;;1.88;1.40;;;22.60;93.40;;;;;;5049175;28;20247;-36
2022/07/07 01:59:47;;;;;;;1.70;1.40;;;22.60;93.50;;;;;;5019369;28;20290;-36
2022/07/07 02:02:15;;;;;;;2.15;1.63;;;22.60;93.50;;;;;;5053631;28;20655;-36
2022/07/07 02:04:42;;;;;;;1.40;1.30;;;22.60;93.60;;;;;;5049140;28;20204;-38
2022/07/07 02:07:14;;;;;;;1.70;1.40;;;22.60;93.50;;;;;;5048109;28;20262;-33
2022/07/07 02:09:43;;;;;;;2.42;1.35;;;22.60;93.60;;;;;;5049503;28;20216;-33
2022/07/07 02:12:10;;;;;;;2.30;1.30;;;22.60;93.70;;;;;;5047806;28;20295;-32
2022/07/07 02:14:40;;;;;;;1.92;1.27;;;22.50;93.60;;;;;;5048133;28;20725;-36
2022/07/07 02:17:13;;;;;;;2.47;1.48;;;22.50;93.70;;;;;;5032360;28;20262;-36
2022/07/07 02:19:40;;;;;;;3.33;1.40;;;22.50;93.60;;;;;;5028976;28;20775;-36
2022/07/07 02:22:12;;;;;;;1.52;1.30;;;22.60;93.60;;;;;;5028268;28;20224;-36
2022/07/07 02:24:39;;;;;;;1.85;1.40;;;22.60;93.70;;;;;;5029614;28;20586;-36
2022/07/07 02:27:09;;;;;;;1.85;1.25;;;22.50;93.60;;;;;;5029137;28;20264;-39
2022/07/07 02:29:36;;;;;;;2.35;1.50;;;22.50;93.60;;;;;;5034536;28;20255;-39
2022/07/07 02:32:06;;;;;;;1.98;1.50;;;22.60;93.60;;;;;;5048983;28;20212;-39
2022/07/07 02:34:36;;;;;;;1.40;1.30;;;22.50;93.70;;;;;;5049203;28;20212;-36
2022/07/07 02:37:03;;;;;;;1.58;1.30;;;22.50;93.70;;;;;;5048653;28;20271;-37
2022/07/07 02:39:31;;;;;;;2.10;1.50;;;22.50;93.70;;;;;;5048942;28;20228;-36
2022/07/07 02:41:58;;;;;;;1.75;1.40;;;22.50;93.70;;;;;;5047324;28;20637;-36
2022/07/07 02:44:27;;;;;;;2.13;1.58;;;22.50;93.80;;;;;;5048948;28;20200;-37
2022/07/07 02:46:55;;;;;;;2.13;1.60;;;22.60;93.80;;;;;;5048634;28;20695;-36
2022/07/07 02:49:22;;;;;;;1.50;1.30;;;22.50;93.70;;;;;;5031137;28;20221;-36
2022/07/07 02:51:49;;;;;;;3.45;1.50;;;22.50;93.90;;;;;;5048460;28;20207;-36
2022/07/07 02:54:17;;;;;;;2.13;1.48;;;22.50;94.00;;;;;;5048891;28;20223;-37
2022/07/07 02:56:46;;;;;;;3.63;1.42;;;22.50;94.00;;;;;;5048302;28;20240;-38
2022/07/07 02:59:16;;;;;;;2.60;1.30;;;22.50;93.90;;;;;;5048584;28;20256;-38
2022/07/07 03:01:43;;;;;;;2.08;1.40;;;22.40;93.90;;;;;;5048608;28;20202;-36
2022/07/07 03:04:11;;;;;;;1.95;1.48;;;22.40;93.80;;;;;;5048609;28;20220;-37
2022/07/07 03:06:41;;;;;;;1.90;1.30;;;22.40;93.90;;;;;;5047979;28;20346;-36
2022/07/07 03:09:16;;;;;;;2.92;1.60;;;22.40;93.90;;;;;;5048332;28;20299;-36
2022/07/07 03:11:45;;;;;;;3.25;1.60;;;22.40;93.90;;;;;;5030597;28;20208;-36
2022/07/07 03:14:12;;;;;;;1.85;1.58;;;22.40;93.90;;;;;;5048455;28;20227;-37
2022/07/07 03:16:43;;;;;;;3.17;1.65;;;22.40;94.10;;;;;;5048232;28;20235;-36
2022/07/07 03:19:10;;;;;;;1.73;1.63;;;22.40;94.00;;;;;;5047292;28;20250;-36
2022/07/07 03:21:40;;;;;;;3.28;1.48;;;22.40;94.00;;;;;;5047666;28;20226;-36
2022/07/07 03:24:07;;;;;;;3.40;1.60;;;22.40;94.10;;;;;;5048064;28;20201;-36
2022/07/07 03:26:34;;;;;;;4.82;1.92;;;22.40;94.00;;;;;;5046540;28;20209;-37
2022/07/07 03:29:02;;;;;;;5.22;1.75;;;22.40;94.10;;;;;;5048592;28;20196;-36
2022/07/07 03:31:29;;;;;;;2.55;1.73;;;22.40;94.20;;;;;;5048322;28;20207;-33
2022/07/07 03:33:57;;;;;;;4.10;2.17;;;22.30;94.20;;;;;;5048336;28;20238;-33
2022/07/07 03:36:24;;;;;;;2.20;1.60;;;22.30;94.10;;;;;;5047610;28;20693;-33
2022/07/07 03:38:52;;;;;;;3.00;1.90;;;22.30;94.10;;;;;;5047777;28;20285;-32
2022/07/07 03:41:23;;;;;;;3.50;1.98;;;22.40;94.20;;;;;;5047192;28;20204;-33
2022/07/07 03:43:51;;;;;;;4.55;1.85;;;22.30;94.40;;;;;;5047727;28;20558;-33
2022/07/07 03:46:18;;;;;;;2.90;1.88;;;22.40;94.20;;;;;;5044734;28;20197;-33
2022/07/07 03:48:46;;;;;;;2.30;1.60;;;22.40;94.20;;;;;;5028655;28;20687;-33
2022/07/07 03:51:16;;;;;;;2.75;1.70;;;22.30;94.10;;;;;;5027469;28;20209;-34
2022/07/07 03:53:43;;;;;;;2.25;1.70;;;22.30;94.20;;;;;;5028178;28;20660;-33
2022/07/07 03:56:10;;;;;;;4.05;1.98;;;22.40;94.30;;;;;;5046709;28;20215;-33
2022/07/07 03:58:42;;;;;;;5.32;2.20;;;22.30;94.20;;;;;;5047468;28;20215;-35
2022/07/07 04:01:09;;;;;;;2.78;1.73;;;22.30;94.40;;;;;;5048076;28;20212;-33
2022/07/07 04:03:37;;;;;;;3.95;1.58;;;22.30;94.30;;;;;;5047978;28;20816;-33
2022/07/07 04:06:05;;;;;;;3.28;1.90;;;22.30;94.30;;;;;;5046581;28;20597;-33
2022/07/07 04:08:32;;;;;;;5.05;1.70;;;22.30;94.30;;;;;;5047898;28;20235;-33
2022/07/07 04:11:02;;;;;;;3.58;1.85;;;22.30;94.30;;;;;;5048199;28;20287;-35
2022/07/07 04:13:30;;;;;;;5.15;2.30;;;22.30;94.30;;;;;;5032949;28;20375;-33
2022/07/07 04:15:59;;;;;;;4.95;1.95;;;22.30;94.40;;;;;;5047785;28;20200;-33
2022/07/07 04:18:27;;;;;;;6.45;2.25;;;22.30;94.40;;;;;;5047510;28;20220;-34
2022/07/07 04:20:54;;;;;;;4.03;2.20;;;22.30;94.50;;;;;;5045843;28;20317;-32
2022/07/07 04:23:21;;;;;;;4.70;2.35;;;22.20;94.40;;;;;;5047948;28;20617;-32
2022/07/07 04:25:51;;;;;;;5.32;2.00;;;22.30;94.50;;;;;;5047843;28;20200;-32
2022/07/07 04:28:19;;;;;;;3.25;1.70;;;22.20;94.50;;;;;;5047340;28;20755;-32
2022/07/07 04:30:46;;;;;;;3.83;1.70;;;22.20;94.40;;;;;;5046015;28;20216;-32
2022/07/07 04:33:14;;;;;;;4.13;1.52;;;22.20;94.60;;;;;;5047490;28;20208;-33
2022/07/07 04:35:41;;;;;;;3.30;1.52;;;22.20;94.90;;;;;;5047214;28;20292;-32
2022/07/07 04:38:08;;;;;;;1.00;0.80;;;22.20;95.20;;;;;;5047421;28;20251;-33
2022/07/07 04:40:36;;;;;;;1.60;0.88;;;22.10;94.80;;;;;;5047338;28;20730;-33
2022/07/07 04:43:03;;;;;;;1.75;0.88;;;22.10;94.80;;;;;;5045857;28;20197;-33
2022/07/07 04:45:30;;;;;;;2.00;0.88;;;22.00;94.90;;;;;;5046873;28;20192;-33
2022/07/07 04:47:58;;;;;;;1.00;0.90;;;22.00;95.00;;;;;;5030742;28;20293;-33
2022/07/07 04:50:28;;;;;;;0.70;0.70;;;22.00;95.00;;;;;;5046362;28;20209;-33
2022/07/07 04:52:58;;;;;;;1.17;0.80;;;21.90;95.10;;;;;;5050172;28;20204;-33
2022/07/07 04:55:27;;;;;;;1.17;1.00;;;21.90;95.10;;;;;;5066198;28;20216;-33
2022/07/07 04:57:55;;;;;;;1.00;0.90;;;21.90;95.30;;;;;;5050378;28;20375;-33
2022/07/07 05:00:22;;;;;;;2.97;1.52;;;21.80;95.30;;;;;;5050642;28;20224;-33
2022/07/07 05:02:49;;;;;;;2.30;1.05;;;21.80;95.40;;;;;;5050741;28;20242;-33
2022/07/07 05:05:17;;;;;;;3.20;1.10;;;21.80;95.50;;;;;;5050480;28;20269;-33
2022/07/07 05:07:45;;;;;;;3.05;1.10;;;21.80;95.60;;;;;;5050531;28;20238;-33
2022/07/07 05:10:12;;;;;;;3.05;1.40;;;21.70;95.60;;;;;;5050580;28;20211;-33
2022/07/07 05:12:39;;;;;;;1.92;0.90;;;21.80;95.60;;;;;;5050019;28;20220;-33
2022/07/07 05:15:09;;;;;;;1.58;1.38;;;21.80;95.80;;;;;;5050660;28;20203;-33
2022/07/07 05:17:39;;;;;;;2.42;1.02;;;21.80;95.80;;;;;;5050722;28;20235;-33
2022/07/07 05:20:07;;;;;;;0.98;0.90;;;21.80;95.80;;;;;;5050081;28;20588;-33
2022/07/07 05:22:37;;;;;;;3.55;1.13;;;21.70;95.80;;;;;;5050765;28;20248;-33
2022/07/07 05:25:11;;;;;;;1.17;0.90;;;21.70;96.00;;;;;;5050189;28;20197;-33
2022/07/07 05:27:44;;;;;;;3.97;1.10;;;21.70;95.90;;;;;;5050051;28;20569;-34
2022/07/07 05:30:19;;;;;;;4.90;2.03;;;21.70;96.00;;;;;;5050522;28;20212;-33
2022/07/07 05:32:46;;;;;;;3.45;1.20;;;21.70;96.00;;;;;;5050206;28;20262;-33
2022/07/07 05:35:17;;;;;;;3.58;1.05;;;21.80;96.20;;;;;;5048453;28;20204;-33
2022/07/07 05:37:44;;;;;;;2.20;0.82;;;21.80;96.10;;;;;;5049759;28;20267;-33
2022/07/07 05:40:14;;;;;;;14.00;2.50;;;21.80;96.20;;;;;;5049990;28;20240;-33
2022/07/07 05:42:48;;;;;;;6.82;1.48;;;21.80;96.30;;;;;;5050111;28;20192;-33
2022/07/07 05:45:22;;;;;;;4.90;1.27;;;21.80;96.30;;;;;;5045997;28;20204;-33
2022/07/07 05:47:50;;;;;;;2.45;1.10;;;21.80;96.30;;;;;;5029930;28;20233;-33
2022/07/07 05:50:19;;;;;;;2.00;1.02;;;21.80;96.30;;;;;;5044343;28;20698;-33
2022/07/07 05:52:46;;;;;;;2.58;1.13;;;21.70;96.70;;;;;;5030053;28;20232;-33
2022/07/07 05:55:14;;;;;;;2.58;0.95;;;21.80;96.50;;;;;;5047549;28;20605;-33
2022/07/07 05:57:44;;;;;;;3.75;0.98;;;21.70;96.30;;;;;;5049584;28;20576;-33
2022/07/07 06:00:11;;;;;;;4.15;0.90;;;21.70;96.40;;;;;;5048207;28;20729;-37
2022/07/07 06:02:39;;;;;;;3.35;0.82;;;21.70;96.20;;;;;;5049279;28;20200;-37
2022/07/07 06:05:06;;;;;;;1.00;0.90;;;21.70;96.30;;;;;;5048629;28;20248;-37
2022/07/07 06:07:34;;;;;;;1.52;0.90;;;21.70;96.50;;;;;;5049737;28;20200;-37
2022/07/07 06:10:04;;;;;;;1.02;0.88;;;21.60;96.30;;;;;;5045296;28;20212;-37
2022/07/07 06:12:31;;;;;;;2.75;1.05;;;21.50;96.20;;;;;;5049253;28;20287;-37
2022/07/07 06:14:59;;;;;;;1.77;0.85;;;21.50;96.30;;;;;;5048993;28;20254;-37
2022/07/07 06:17:26;;;;;;;1.67;1.10;;;21.50;96.30;;;;;;5049596;28;20808;-37
2022/07/07 06:20:14;;;;;;;3.17;1.60;;;21.50;96.30;;;;;;5049036;28;20269;-37
2022/07/07 06:22:41;;;;;;;3.03;1.42;;;21.40;96.50;;;;;;5049336;28;20208;-37
2022/07/07 06:25:12;;;;;;;2.35;1.40;;;21.40;96.70;;;;;;5047872;28;20762;-37
2022/07/07 06:27:39;;;;;;;2.45;1.45;;;21.40;96.40;;;;;;5048452;28;20568;-37
2022/07/07 06:30:09;;;;;;;2.35;1.50;;;21.40;96.50;;;;;;5049120;28;20474;-37
2022/07/07 06:32:36;;;;;;;2.38;1.90;;;21.30;96.50;;;;;;5048833;28;20714;-37
2022/07/07 06:35:05;;;;;;;4.22;2.45;;;21.30;96.50;;;;;;5048620;28;20278;-37
2022/07/07 06:37:33;;;;;;;3.55;2.42;;;21.30;96.50;;;;;;5048453;28;20259;-37
2022/07/07 06:40:01;;;;;;;2.78;1.83;;;21.30;96.50;;;;;;5047224;28;20310;-37
2022/07/07 06:42:28;;;;;;;2.40;1.58;;;21.30;96.40;;;;;;5048463;28;20204;-37
2022/07/07 06:44:56;;;;;;;2.08;1.42;;;21.30;96.60;;;;;;5048547;28;20764;-37
2022/07/07 06:47:26;;;;;;;3.85;1.15;;;21.30;96.60;;;;;;5048424;28;20227;-37
2022/07/07 06:49:54;;;;;;;2.45;1.05;;;21.40;96.50;;;;;;5048286;28;20204;-37
2022/07/07 06:52:23;;;;;;;2.03;1.23;;;21.40;96.60;;;;;;5048659;28;20208;-37
2022/07/07 06:54:51;;;;;;;1.50;0.90;;;21.40;96.60;;;;;;5048238;28;20200;-34
2022/07/07 06:57:18;;;;;;;1.73;0.98;;;21.40;96.60;;;;;;5048208;28;20695;-33
2022/07/07 06:59:47;;;;;;;3.28;1.58;;;21.40;96.60;;;;;;5048482;28;20216;-33
2022/07/07 07:02:14;;;;;;;3.47;2.25;;;21.40;96.80;;;;;;5047063;28;20657;-33
2022/07/07 07:04:44;;;;;;;3.30;1.33;;;21.40;97.00;;;;;;5042916;28;20197;-34
2022/07/07 07:07:14;;;;;;;2.00;1.17;;;21.40;96.50;;;;;;5028321;28;20687;-34
2022/07/07 07:09:41;;;;;;;3.50;1.50;;;21.40;96.50;;;;;;5040519;28;20204;-36
2022/07/07 07:12:11;;;;;;;2.42;1.40;;;21.40;96.70;;;;;;5048051;28;20188;-37
2022/07/07 07:14:38;;;;;;;4.80;1.50;;;21.40;96.80;;;;;;5046679;28;20689;-37
2022/07/07 07:17:06;;;;;;;2.67;1.30;;;21.40;96.80;;;;;;5048531;28;20192;-34
2022/07/07 07:19:37;;;;;;;3.00;1.10;;;21.40;96.90;;;;;;5048080;28;20674;-33
2022/07/07 07:22:05;;;;;;;3.95;1.65;;;21.40;97.00;;;;;;5047898;28;20247;-33
2022/07/07 07:24:34;;;;;;;2.08;1.20;;;21.40;97.00;;;;;;5048110;28;20959;-33
2022/07/07 07:27:04;;;;;;;2.80;1.00;;;21.40;96.80;;;;;;5038620;28;20197;-33
2022/07/07 07:29:34;;;;;;;2.15;0.88;;;21.40;96.70;;;;;;5028136;28;20668;-34
2022/07/07 07:32:08;;;;;;;2.33;0.90;;;21.40;96.70;;;;;;5028184;28;20197;-33
2022/07/07 07:34:36;;;;;;;1.65;1.00;;;21.30;96.60;;;;;;5026817;28;20597;-33
2022/07/07 07:37:03;;;;;;;3.38;1.10;;;21.30;96.60;;;;;;5045606;28;20232;-33
2022/07/07 07:39:30;;;;;;;7.35;1.30;;;21.30;96.60;;;;;;5047683;28;20224;-33
2022/07/07 07:42:00;;;;;;;3.53;1.05;;;21.30;96.60;;;;;;5047861;28;20216;-37
2022/07/07 07:47:17;;;;;;;2.70;0.95;;;21.20;96.50;;;;;;5039375;28;20669;-37
2022/07/07 07:49:45;;;;;;;5.22;1.38;;;21.30;96.40;;;;;;5046952;28;20231;-37
2022/07/07 07:52:12;;;;;;;4.57;0.93;;;21.20;96.50;;;;;;5047715;28;20291;-37
2022/07/07 07:54:39;;;;;;;7.03;1.45;;;21.20;96.30;;;;;;5046387;28;20224;-37
2022/07/07 07:57:06;;;;;;;4.43;1.70;;;21.20;96.30;;;;;;5047188;28;20295;-37
2022/07/07 07:59:36;;;;;;;5.35;1.38;;;21.10;96.10;;;;;;5048327;28;20285;-37
2022/07/07 08:02:06;;;;;;;2.65;1.30;;;21.10;96.10;;;;;;5048010;28;20228;-37
2022/07/07 08:04:35;;;;;;;3.60;1.30;;;21.10;96.30;;;;;;5047958;28;20590;-37
2022/07/07 08:07:03;;;;;;;5.40;1.48;;;21.10;96.00;;;;;;5046510;28;20196;-33
2022/07/07 08:09:33;;;;;;;5.35;2.05;;;21.00;96.00;;;;;;5047536;28;20200;-33
2022/07/07 08:12:02;;;;;;;5.85;1.33;;;21.00;96.00;;;;;;5047608;28;20215;-33
2022/07/07 08:14:32;;;;;;;6.90;1.65;;;21.00;96.00;;;;;;5047766;28;20212;-33
2022/07/07 08:16:59;;;;;;;4.53;1.20;;;21.00;96.10;;;;;;5047669;28;20675;-33
2022/07/07 08:19:27;;;;;;;5.28;1.42;;;20.90;96.10;;;;;;5047606;28;20509;-33
2022/07/07 08:21:54;;;;;;;3.00;1.35;;;20.90;96.00;;;;;;5046883;28;20601;-33
2022/07/07 08:24:24;;;;;;;2.30;1.20;;;21.00;96.00;;;;;;5047817;28;20694;-34
2022/07/07 08:26:53;;;;;;;6.40;1.75;;;21.00;95.80;;;;;;5039687;28;20900;-33
2022/07/07 08:29:20;;;;;;;6.38;1.92;;;21.00;95.60;;;;;;5033343;28;20209;-33
2022/07/07 08:31:48;;;;;;;4.57;1.38;;;21.00;95.50;;;;;;5051458;28;20247;-33
2022/07/07 08:34:15;;;;;;;2.97;1.13;;;21.00;95.50;;;;;;5051571;28;20262;-33
2022/07/07 08:36:45;;;;;;;5.82;1.85;;;20.90;95.50;;;;;;5050716;28;20724;-33
2022/07/07 08:39:13;;;;;;;4.05;1.80;;;20.90;95.70;;;;;;5050217;28;20219;-33
2022/07/07 08:41:43;;;;;;;3.20;1.08;;;20.90;95.90;;;;;;5049429;28;20219;-33
2022/07/07 08:44:12;;;;;;;3.78;1.20;;;20.80;95.80;;;;;;5050009;28;20212;-34
2022/07/07 08:46:43;;;;;;;4.35;1.08;;;20.80;95.70;;;;;;5051213;28;20228;-33
2022/07/07 08:49:13;;;;;;;4.75;1.20;;;20.80;95.70;;;;;;5051013;28;20646;-33
2022/07/07 08:51:43;;;;;;;3.45;0.90;;;20.90;95.70;;;;;;5049543;28;20214;-33
2022/07/07 08:54:13;;;;;;;6.30;1.15;;;20.90;95.60;;;;;;5051318;28;20212;-33
2022/07/07 08:56:42;;;;;;;2.33;0.63;;;20.90;95.70;;;;;;5050593;28;20197;-33
2022/07/07 08:59:11;;;;;;;1.95;0.57;;;20.80;95.70;;;;;;5051192;28;20204;-33
2022/07/07 09:01:38;;;;;;;1.85;0.60;;;20.80;95.70;;;;;;5047899;28;20679;-33
2022/07/07 09:04:09;;;;;;;1.42;0.40;;;20.90;95.90;;;;;;5025792;28;20308;-33
2022/07/07 09:06:36;;;;;;;1.65;0.45;;;20.90;95.80;;;;;;5030299;28;20566;-33
2022/07/07 09:09:05;;;;;;;2.60;0.50;;;20.90;95.80;;;;;;5037532;28;20192;-33
2022/07/07 09:11:34;;;;;;;2.95;0.60;;;20.90;95.80;;;;;;5048914;28;20219;-34
2022/07/07 09:14:16;;;;;;;1.60;0.30;;;20.90;95.80;;;;;;5051034;28;20193;-33
2022/07/07 09:16:45;;;;;;;2.47;0.45;;;20.90;95.80;;;;;;5050096;28;20224;-33
2022/07/07 09:19:22;;;;;;;1.30;0.70;;;20.90;95.80;;;;;;5050332;28;20259;-33
2022/07/07 09:21:50;;;;;;;0.93;0.73;;;21.00;96.00;;;;;;5050083;28;20231;-33
2022/07/07 09:24:18;;;;;;;2.50;0.63;;;21.00;96.00;;;;;;5050445;28;20674;-33
2022/07/07 09:26:50;;;;;;;9.30;1.23;;;21.10;96.00;;;;;;5042490;28;20553;-33
2022/07/07 09:29:22;;;;;;;1.55;1.30;;;21.20;96.10;;;;;;5030803;28;20577;-33
2022/07/07 09:32:15;;;;;;;2.58;0.98;;;21.30;96.00;;;;;;5028753;28;20201;-33
2022/07/07 09:34:43;;;;;;;2.55;1.40;;;21.30;96.00;;;;;;5034396;28;20583;-33
2022/07/07 09:39:57;;;;;;;3.55;1.67;;;21.40;95.90;;;;;;5029428;28;20738;-33
2022/07/07 09:42:40;;;;;;;3.88;1.25;;;21.30;95.90;;;;;;5029787;28;20278;-34
2022/07/07 09:45:11;;;;;;;1.15;0.60;;;21.20;96.10;;;;;;5029851;28;20308;-33
2022/07/07 09:47:39;;;;;;;0.47;0.32;;;21.20;96.10;;;;;;5030034;28;20247;-33
2022/07/07 09:50:09;;;;;;;0.52;0.40;;;21.10;96.00;;;;;;5029685;28;20252;-34
2022/07/07 09:52:39;;;;;;;1.90;0.47;;;21.00;95.90;;;;;;5044061;28;20259;-33
2022/07/07 09:55:11;;;;;;;3.20;0.90;;;21.00;96.00;;;;;;5049859;28;20702;-33
2022/07/07 09:57:40;;;;;;;1.38;0.68;;;21.00;96.10;;;;;;5048862;28;20899;-33
2022/07/07 10:00:08;;;;;;;1.05;0.60;;;21.00;96.10;;;;;;5047685;28;20196;-33
2022/07/07 10:02:38;;;;;;;2.35;0.60;;;21.10;96.20;;;;;;5049354;28;20228;-34
2022/07/07 10:05:07;;;;;;;1.50;1.00;;;21.10;96.20;;;;;;5049142;28;20709;-34
2022/07/07 10:07:34;;;;;;;2.92;0.90;;;21.20;96.30;;;;;;5049539;28;20656;-34
2022/07/07 10:10:06;;;;;;;2.13;1.50;;;21.20;96.30;;;;;;5049011;28;20250;-34
2022/07/07 10:12:42;;;;;;;2.65;1.52;;;21.30;96.50;;;;;;5048580;28;20208;-34
2022/07/07 10:15:12;;;;;;;3.53;1.30;;;21.40;96.40;;;;;;5049739;28;20203;-34
2022/07/07 10:17:41;;;;;;;2.65;1.58;;;21.40;96.40;;;;;;5049391;28;20290;-34
2022/07/07 10:20:09;;;;;;;2.28;1.27;;;21.40;96.40;;;;;;5049095;28;20703;-35
2022/07/07 10:22:37;;;;;;;4.30;1.67;;;21.40;96.50;;;;;;5049244;28;20227;-34
2022/07/07 10:25:10;;;;;;;5.38;1.40;;;21.50;96.60;;;;;;5048714;28;20201;-34
2022/07/07 10:27:42;;;;;;;3.83;1.38;;;21.50;96.50;;;;;;5048618;28;20199;-34
2022/07/07 10:30:31;;;;;;;2.58;1.20;;;21.50;96.50;;;;;;5049042;28;20222;-34
2022/07/07 10:32:59;;;;;;;2.33;1.20;;;21.50;96.50;;;;;;5049204;28;20691;-35
2022/07/07 10:35:27;;;;;;;6.22;1.83;;;21.50;96.30;;;;;;5048681;28;20314;-34
2022/07/07 10:37:56;;;;;;;2.10;1.00;;;21.50;96.30;;;;;;5048736;28;20290;-34
2022/07/07 10:40:28;;;;;;;2.13;0.70;;;21.50;96.20;;;;;;5047281;28;20230;-35
2022/07/07 10:43:14;;;;;;;2.08;1.27;;;21.50;96.30;;;;;;5048317;28;20287;-34
2022/07/07 10:45:45;;;;;;;3.80;1.60;;;21.50;96.40;;;;;;5033322;28;20202;-34
2022/07/07 10:48:52;;;;;;;2.60;1.23;;;21.50;96.30;;;;;;5048740;28;20259;-37
2022/07/07 10:51:27;;;;;;;2.35;1.30;;;21.60;96.30;;;;;;5048003;28;20200;-37
2022/07/07 10:53:57;;;;;;;3.50;1.23;;;21.60;96.40;;;;;;5048746;28;20207;-38
2022/07/07 10:56:25;;;;;;;2.95;1.08;;;21.60;96.30;;;;;;5048467;28;20204;-34
2022/07/07 10:58:54;;;;;;;2.83;0.90;;;21.60;96.30;;;;;;5048250;28;20300;-38
2022/07/07 11:01:24;;;;;;;2.60;1.45;;;21.60;96.40;;;;;;5048223;28;20257;-34
2022/07/07 11:03:53;;;;;;;2.20;1.20;;;21.70;96.50;;;;;;5048318;28;20219;-34
2022/07/07 11:06:21;;;;;;;2.45;1.08;;;21.70;96.50;;;;;;5046001;28;20199;-34
2022/07/07 11:09:05;;;;;;;4.38;1.00;;;21.70;96.50;;;;;;5046833;28;20231;-34
2022/07/07 11:11:34;;;;;;;2.03;0.77;;;21.70;96.60;;;;;;5048162;28;20203;-34
2022/07/07 11:14:12;;;;;;;2.17;0.73;;;21.80;96.70;;;;;;5048579;28;20224;-34
2022/07/07 11:16:56;;;;;;;1.90;0.88;;;21.80;96.80;;;;;;5046353;28;20212;-34
2022/07/07 11:19:35;;;;;;;1.27;0.80;;;21.80;96.80;;;;;;5048144;28;20208;-34
2022/07/07 11:22:16;;;;;;;3.47;0.70;;;21.90;96.80;;;;;;5047854;28;20277;-34
2022/07/07 11:24:46;;;;;;;3.88;0.80;;;21.90;96.80;;;;;;5048286;28;20314;-34
2022/07/07 11:27:13;;;;;;;4.80;1.00;;;21.90;96.90;;;;;;5028611;28;20292;-35
2022/07/07 11:29:43;;;;;;;4.38;1.30;;;21.90;96.90;;;;;;5028313;28;20661;-34
2022/07/07 11:32:13;;;;;;;1.88;1.00;;;21.90;96.90;;;;;;5028415;28;20201;-34
2022/07/07 11:34:48;;;;;;;4.07;1.20;;;21.90;96.90;;;;;;5043612;28;20220;-36
2022/07/07 11:37:18;;;;;;;1.23;0.95;;;22.00;96.90;;;;;;5047871;28;20259;-34
2022/07/07 11:39:45;;;;;;;1.33;0.98;;;21.90;97.00;;;;;;5047937;28;20220;-34
2022/07/07 11:42:12;;;;;;;2.85;0.70;;;22.00;96.80;;;;;;5047842;28;20718;-34
2022/07/07 11:44:44;;;;;;;1.55;0.70;;;22.00;96.80;;;;;;5048156;28;20274;-34
2022/07/07 11:47:14;;;;;;;3.38;0.93;;;22.00;96.80;;;;;;5048155;28;20207;-34
2022/07/07 11:49:44;;;;;;;6.13;1.20;;;22.10;96.70;;;;;;5038122;28;20558;-35
2022/07/07 11:52:21;;;;;;;4.65;1.80;;;22.10;96.80;;;;;;5046832;28;20630;-34
2022/07/07 11:54:49;;;;;;;3.15;1.40;;;22.10;96.80;;;;;;5047893;28;20246;-34
2022/07/07 11:57:37;;;;;;;5.35;1.75;;;22.10;96.80;;;;;;5047957;28;20323;-34
2022/07/07 12:00:12;;;;;;;2.53;1.45;;;22.10;96.90;;;;;;5046377;28;20679;-34
2022/07/07 12:02:41;;;;;;;2.15;1.13;;;22.20;97.00;;;;;;5050252;28;20220;-34
2022/07/07 12:05:09;;;;;;;6.45;1.33;;;22.20;96.90;;;;;;5051348;28;20200;-34
2022/07/07 12:07:36;;;;;;;5.22;0.88;;;22.20;96.70;;;;;;5051661;28;20204;-34
2022/07/07 12:10:05;;;;;;;2.65;0.98;;;22.20;96.60;;;;;;5051668;28;20207;-34
2022/07/07 12:12:32;;;;;;;5.78;1.77;;;22.20;96.60;;;;;;5050914;28;20200;-34
2022/07/07 12:15:06;;;;;;;2.55;0.88;;;22.10;96.60;;;;;;5048202;28;20285;-34
2022/07/07 12:17:39;;;;;;;2.55;1.98;;;22.10;96.60;;;;;;5051399;28;20741;-34
2022/07/07 12:20:14;;;;;;;3.95;1.95;;;22.10;96.70;;;;;;5051437;28;20208;-34
2022/07/07 12:22:53;;;;;;;4.57;1.70;;;22.10;96.60;;;;;;5051754;28;20281;-34
2022/07/07 12:25:23;;;;;;;6.93;2.47;;;22.10;96.70;;;;;;5051356;28;20198;-34
2022/07/07 12:28:10;;;;;;;3.53;1.38;;;22.10;96.90;;;;;;5050728;28;20591;-34
2022/07/07 12:30:55;;;;;;;9.25;2.03;;;22.20;96.70;;;;;;5051247;28;20740;-34
2022/07/07 12:33:28;;;;;;;6.38;2.28;;;22.20;96.70;;;;;;5051279;28;20784;-34
2022/07/07 12:36:24;;;;;;;4.03;2.38;;;22.20;96.70;;;;;;5050939;28;20607;-34
2022/07/07 12:38:57;;;;;;;4.90;2.00;;;22.20;96.60;;;;;;5051225;28;20204;-34
2022/07/07 12:41:37;;;;;;;2.95;1.10;;;22.10;96.50;;;;;;5048690;28;20234;-34
2022/07/07 12:44:17;;;;;;;2.80;1.60;;;22.20;96.50;;;;;;5051354;28;20195;-37
2022/07/07 12:47:04;;;;;;;5.22;1.73;;;22.20;96.50;;;;;;5031542;28;20308;-37
2022/07/07 12:49:34;;;;;;;4.93;1.70;;;22.20;96.30;;;;;;5030915;28;20200;-37
2022/07/07 12:52:01;;;;;;;4.32;1.27;;;22.10;96.20;;;;;;5030404;28;20687;-38
2022/07/07 12:54:33;;;;;;;3.20;1.30;;;22.10;96.20;;;;;;5043539;28;20683;-37
2022/07/07 12:57:05;;;;;;;4.03;1.52;;;22.10;96.30;;;;;;5050278;28;20196;-37
2022/07/07 12:59:47;;;;;;;3.88;1.70;;;22.00;96.30;;;;;;5050896;28;20228;-37
2022/07/07 13:02:14;;;;;;;4.70;1.63;;;22.10;96.30;;;;;;5050550;28;20322;-37
2022/07/07 13:04:42;;;;;;;5.95;1.60;;;22.00;96.30;;;;;;5050510;28;20205;-37
2022/07/07 13:07:14;;;;;;;3.00;1.42;;;22.00;96.40;;;;;;5050456;28;20762;-37